createdAt,value
2019-01-12T00:00:37.433Z,19.50
2019-01-12T00:03:06.184Z,16.93
2019-01-12T00:05:34.914Z,19.80
2019-01-12T00:08:03.941Z,22.20
2019-01-12T00:10:32.393Z,16.57
2019-01-12T00:13:00.872Z,18.57
2019-01-12T00:15:29.320Z,22.03
2019-01-12T00:17:57.836Z,19.03
2019-01-12T00:20:26.441Z,21.53
2019-01-12T00:22:54.894Z,23.07
2019-01-12T00:25:23.333Z,20.43
2019-01-12T00:27:51.801Z,24.63
2019-01-12T00:30:20.362Z,21.77
2019-01-12T00:32:48.833Z,24.97
2019-01-12T00:35:17.268Z,22.67
2019-01-12T00:37:45.750Z,22.73
2019-01-12T00:40:14.420Z,21.30
2019-01-12T00:42:42.875Z,19.30
2019-01-12T00:45:13.265Z,18.60
2019-01-12T00:47:41.788Z,17.93
2019-01-12T00:50:16.291Z,17.73
2019-01-12T00:52:44.743Z,20.90
2019-01-12T00:55:13.421Z,20.67
2019-01-12T00:57:41.876Z,21.47
2019-01-12T01:00:13.619Z,18.27
2019-01-12T01:02:42.100Z,17.40
2019-01-12T01:05:10.775Z,20.60
2019-01-12T01:07:39.573Z,21.93
2019-01-12T01:10:11.670Z,22.73
2019-01-12T01:12:40.125Z,22.63
2019-01-12T01:15:10.600Z,24.03
2019-01-12T01:17:39.055Z,19.50
2019-01-12T01:20:10.136Z,23.03
2019-01-12T01:22:38.596Z,29.87
2019-01-12T01:25:08.473Z,25.27
2019-01-12T01:27:37.051Z,22.77
2019-01-12T01:30:14.887Z,28.27
2019-01-12T01:32:43.328Z,24.47
2019-01-12T01:35:12.226Z,27.27
2019-01-12T01:37:40.814Z,25.30
2019-01-12T01:40:12.211Z,24.83
2019-01-12T01:42:40.916Z,25.23
2019-01-12T01:45:12.558Z,25.93
2019-01-12T01:47:41.070Z,22.57
2019-01-12T01:50:13.161Z,22.20
2019-01-12T01:52:41.674Z,24.07
2019-01-12T01:55:10.278Z,24.67
2019-01-12T01:57:38.796Z,21.43
2019-01-12T02:00:15.638Z,24.97
2019-01-12T02:02:44.151Z,22.20
2019-01-12T02:05:12.974Z,24.87
2019-01-12T02:07:41.563Z,23.17
2019-01-12T02:10:16.067Z,25.90
2019-01-12T02:12:44.601Z,28.77
2019-01-12T02:15:15.000Z,23.40
2019-01-12T02:17:43.572Z,22.63
2019-01-12T02:20:12.377Z,24.93
2019-01-12T02:22:40.816Z,25.93
2019-01-12T02:25:10.967Z,20.70
2019-01-12T02:27:39.437Z,28.53
2019-01-12T02:30:19.893Z,23.97
2019-01-12T02:32:48.348Z,25.73
2019-01-12T02:35:16.787Z,24.43
2019-01-12T02:37:45.255Z,21.43
2019-01-12T02:40:14.002Z,26.43
2019-01-12T02:42:42.536Z,25.17
2019-01-12T02:45:13.120Z,23.47
2019-01-12T02:47:41.575Z,23.67
2019-01-12T02:50:12.266Z,26.77
2019-01-12T02:52:40.798Z,24.73
2019-01-12T02:55:10.181Z,25.03
2019-01-12T02:57:38.623Z,20.67
2019-01-12T03:00:15.857Z,19.87
2019-01-12T03:02:44.315Z,18.80
2019-01-12T03:05:12.924Z,17.10
2019-01-12T03:07:41.556Z,18.70
2019-01-12T03:10:12.740Z,17.17
2019-01-12T03:12:41.185Z,18.73
2019-01-12T03:15:14.465Z,18.50
2019-01-12T03:17:43.098Z,18.77
2019-01-12T03:20:14.499Z,21.70
2019-01-12T03:22:43.033Z,13.97
2019-01-12T03:25:17.985Z,19.00
2019-01-12T03:27:41.886Z,19.17
2019-01-12T03:30:15.606Z,20.27
2019-01-12T03:32:44.115Z,15.90
2019-01-12T03:35:12.929Z,17.97
2019-01-12T03:37:41.428Z,15.70
2019-01-12T03:40:13.104Z,14.80
2019-01-12T03:42:41.621Z,15.93
2019-01-12T03:45:12.619Z,19.70
2019-01-12T03:47:41.241Z,16.80
2019-01-12T03:50:12.211Z,15.87
2019-01-12T03:52:40.715Z,15.23
2019-01-12T03:55:09.708Z,17.77
2019-01-12T03:57:38.228Z,15.53
2019-01-12T04:00:09.753Z,17.10
2019-01-12T04:02:39.862Z,20.80
2019-01-12T04:05:08.351Z,20.30
2019-01-12T04:07:36.811Z,17.60
2019-01-12T04:10:08.297Z,22.93
2019-01-12T04:12:36.761Z,20.07
2019-01-12T04:15:07.936Z,22.47
2019-01-12T04:17:36.459Z,17.20
2019-01-12T04:20:08.449Z,18.77
2019-01-12T04:22:36.907Z,22.70
2019-01-12T04:25:06.087Z,21.70
2019-01-12T04:27:34.628Z,21.60
2019-01-12T04:30:03.436Z,25.90
2019-01-12T04:32:31.877Z,22.77
2019-01-12T04:35:00.333Z,25.93
2019-01-12T04:37:29.131Z,23.40
2019-01-12T04:39:57.596Z,25.43
2019-01-12T04:42:26.032Z,22.83
2019-01-12T04:44:54.492Z,24.13
2019-01-12T04:47:22.927Z,19.63
2019-01-12T04:49:51.364Z,19.30
2019-01-12T04:52:19.901Z,22.43
2019-01-12T04:54:48.337Z,23.60
2019-01-12T04:57:16.822Z,20.50
2019-01-12T04:59:50.994Z,20.23
2019-01-12T05:02:19.449Z,18.27
2019-01-12T05:04:47.896Z,18.23
2019-01-12T05:07:20.027Z,19.00
2019-01-12T05:09:48.473Z,20.43
2019-01-12T05:12:20.611Z,17.90
2019-01-12T05:14:49.055Z,15.17
2019-01-12T05:17:17.656Z,15.57
2019-01-12T05:19:46.147Z,15.50
2019-01-12T05:22:14.601Z,16.70
2019-01-12T05:24:43.141Z,19.60
2019-01-12T05:27:11.866Z,18.47
2019-01-12T05:29:40.397Z,19.77
2019-01-12T05:32:08.917Z,20.50
2019-01-12T05:34:37.372Z,18.60
2019-01-12T05:37:05.815Z,21.87
2019-01-12T05:39:35.889Z,17.73
2019-01-12T05:42:04.464Z,23.23
2019-01-12T05:44:38.529Z,23.33
2019-01-12T05:47:06.986Z,19.30
2019-01-12T05:49:39.071Z,24.30
2019-01-12T05:52:07.580Z,23.70
2019-01-12T05:54:36.042Z,21.93
2019-01-12T05:57:04.544Z,26.97
2019-01-12T05:59:33.077Z,25.40
2019-01-12T06:02:01.618Z,28.90
2019-01-12T06:04:30.057Z,32.27
2019-01-12T06:06:58.519Z,26.17
2019-01-12T06:09:26.969Z,26.10
2019-01-12T06:11:55.431Z,26.80
2019-01-12T06:14:23.877Z,31.27
2019-01-12T06:16:52.440Z,31.90
2019-01-12T06:19:20.885Z,27.93
2019-01-12T06:21:49.434Z,27.43
2019-01-12T06:24:18.083Z,30.30
2019-01-12T06:26:46.575Z,27.37
2019-01-12T06:29:15.045Z,29.40
2019-01-12T06:31:43.617Z,26.30
2019-01-12T06:34:12.117Z,26.30
2019-01-12T06:36:40.581Z,28.43
2019-01-12T06:39:11.333Z,28.87
2019-01-12T06:41:39.850Z,31.43
2019-01-12T06:44:15.817Z,32.60
2019-01-12T06:46:44.268Z,34.60
2019-01-12T06:49:13.079Z,35.43
2019-01-12T06:51:41.624Z,34.50
2019-01-12T06:54:10.109Z,40.43
2019-01-12T06:56:38.553Z,42.73
2019-01-12T06:59:07.018Z,39.00
2019-01-12T07:01:35.478Z,45.43
2019-01-12T07:04:05.186Z,50.07
2019-01-12T07:06:33.651Z,41.23
2019-01-12T07:09:02.163Z,42.00
2019-01-12T07:11:30.621Z,43.10
2019-01-12T07:13:59.080Z,49.17
2019-01-12T07:16:29.081Z,45.07
2019-01-12T07:18:57.549Z,48.97
2019-01-12T07:21:25.997Z,52.93
2019-01-12T07:23:54.455Z,49.80
2019-01-12T07:26:22.928Z,61.10
2019-01-12T07:28:51.364Z,55.40
2019-01-12T07:31:19.823Z,58.87
2019-01-12T07:33:48.272Z,55.73
2019-01-12T07:36:16.816Z,58.20
2019-01-12T07:38:45.257Z,54.77
2019-01-12T07:41:13.717Z,60.83
2019-01-12T07:43:45.264Z,59.50
2019-01-12T07:46:13.833Z,60.93
2019-01-12T07:48:42.280Z,61.30
2019-01-12T07:51:10.740Z,59.83
2019-01-12T07:53:39.189Z,61.20
2019-01-12T07:56:07.716Z,57.07
2019-01-12T07:58:36.525Z,59.00
2019-01-12T08:01:05.057Z,55.70
2019-01-12T08:03:33.557Z,62.50
2019-01-12T08:06:02.088Z,57.87
2019-01-12T08:08:30.609Z,54.93
2019-01-12T08:10:59.447Z,46.90
2019-01-12T08:13:28.050Z,51.90
2019-01-12T08:15:56.565Z,54.47
2019-01-12T08:18:25.025Z,48.37
2019-01-12T08:20:53.492Z,45.23
2019-01-12T08:23:21.971Z,42.13
2019-01-12T08:25:50.498Z,44.83
2019-01-12T08:28:18.964Z,41.30
2019-01-12T08:30:47.432Z,40.53
2019-01-12T08:33:18.939Z,39.37
2019-01-12T08:35:47.397Z,35.37
2019-01-12T08:38:18.936Z,31.60
2019-01-12T08:40:47.467Z,39.40
2019-01-12T08:43:20.359Z,35.90
2019-01-12T08:45:48.796Z,34.67
2019-01-12T08:48:17.232Z,37.27
2019-01-12T08:50:45.693Z,35.87
2019-01-12T08:53:14.154Z,32.73
2019-01-12T08:55:42.592Z,34.20
2019-01-12T08:58:13.900Z,33.03
2019-01-12T09:00:42.368Z,33.67
2019-01-12T09:03:10.806Z,33.27
2019-01-12T09:05:39.266Z,33.27
2019-01-12T09:08:07.864Z,35.90
2019-01-12T09:10:37.866Z,36.97
2019-01-12T09:13:06.304Z,29.87
2019-01-12T09:15:36.495Z,34.50
2019-01-12T09:18:05.073Z,34.27
2019-01-12T09:20:33.544Z,30.80
2019-01-12T09:23:01.990Z,33.30
2019-01-12T09:25:30.449Z,31.83
2019-01-12T09:27:59.340Z,29.27
2019-01-12T09:30:27.971Z,30.17
2019-01-12T09:32:56.414Z,29.17
2019-01-12T09:35:24.954Z,28.00
2019-01-12T09:37:53.384Z,25.17
2019-01-12T09:40:21.960Z,23.83
2019-01-12T09:42:50.789Z,23.10
2019-01-12T09:45:19.411Z,26.60
2019-01-12T09:47:48.050Z,28.50
2019-01-12T09:50:20.050Z,28.37
2019-01-12T09:54:41.919Z,26.13
2019-01-12T09:57:10.381Z,30.00
2019-01-12T09:59:38.836Z,26.20
2019-01-12T10:02:07.296Z,27.93
2019-01-12T10:04:35.877Z,26.60
2019-01-12T10:07:04.592Z,24.83
2019-01-12T10:09:33.150Z,24.67
2019-01-12T10:12:01.669Z,23.07
2019-01-12T10:14:30.136Z,24.80
2019-01-12T10:16:58.575Z,26.27
2019-01-12T10:19:27.040Z,23.03
2019-01-12T10:21:55.805Z,23.13
2019-01-12T10:24:24.271Z,28.17
2019-01-12T10:26:58.535Z,22.43
2019-01-12T10:29:23.049Z,22.47
2019-01-12T10:31:51.483Z,19.60
2019-01-12T10:34:20.057Z,24.03
2019-01-12T10:36:48.567Z,23.03
2019-01-12T10:39:18.013Z,22.63
2019-01-12T10:41:46.631Z,19.87
2019-01-12T10:44:15.211Z,19.60
2019-01-12T10:46:43.834Z,18.33
2019-01-12T10:49:15.013Z,18.23
2019-01-12T10:51:43.545Z,18.80
2019-01-12T10:54:12.057Z,21.07
2019-01-12T10:56:40.584Z,16.87
2019-01-12T10:59:09.025Z,16.67
2019-01-12T11:01:37.475Z,15.93
2019-01-12T11:04:05.912Z,16.03
2019-01-12T11:06:35.230Z,19.73
2019-01-12T11:09:05.221Z,20.00
2019-01-12T11:11:33.811Z,17.27
2019-01-12T11:14:02.364Z,17.00
2019-01-12T11:16:30.866Z,20.57
2019-01-12T11:18:59.480Z,18.03
2019-01-12T11:21:28.142Z,16.10
2019-01-12T11:23:56.659Z,16.93
2019-01-12T11:26:25.242Z,19.03
2019-01-12T11:28:53.933Z,15.93
2019-01-12T11:31:22.933Z,19.17
2019-01-12T11:33:51.369Z,18.00
2019-01-12T11:36:19.820Z,13.93
2019-01-12T11:38:48.300Z,18.00
2019-01-12T11:41:16.751Z,15.77
2019-01-12T11:43:45.276Z,14.63
2019-01-12T11:46:13.709Z,15.13
2019-01-12T11:48:43.552Z,15.47
2019-01-12T11:51:12.973Z,20.13
2019-01-12T11:53:41.591Z,19.20
2019-01-12T11:56:10.098Z,22.70
2019-01-12T11:58:38.558Z,20.10
2019-01-12T12:01:07.142Z,19.87
2019-01-12T12:03:35.587Z,19.90
2019-01-12T12:06:04.563Z,19.03
2019-01-12T12:08:33.098Z,16.53
2019-01-12T12:11:01.604Z,21.63
2019-01-12T12:13:30.843Z,19.50
2019-01-12T12:15:59.339Z,17.47
2019-01-12T12:18:27.805Z,18.03
2019-01-12T12:20:56.241Z,18.03
2019-01-12T12:23:24.699Z,19.70
2019-01-12T12:25:53.282Z,17.83
2019-01-12T12:28:21.803Z,19.33
2019-01-12T12:30:50.333Z,16.60
2019-01-12T12:33:18.776Z,15.40
2019-01-12T12:35:47.356Z,18.13
2019-01-12T12:38:15.815Z,17.00
2019-01-12T12:40:44.278Z,17.37
2019-01-12T12:43:12.793Z,17.87
2019-01-12T12:45:41.329Z,18.73
2019-01-12T12:48:09.771Z,19.07
2019-01-12T12:50:38.233Z,18.90
2019-01-12T12:53:06.741Z,14.80
2019-01-12T12:55:35.318Z,13.80
2019-01-12T12:58:04.080Z,14.20
2019-01-12T13:00:32.733Z,14.80
2019-01-12T13:03:01.388Z,13.63
2019-01-12T13:05:30.041Z,12.13
2019-01-12T13:07:58.712Z,10.83
2019-01-12T13:10:28.599Z,13.07
2019-01-12T13:12:57.201Z,8.50
2019-01-12T13:15:25.707Z,9.30
2019-01-12T13:17:54.268Z,11.27
2019-01-12T13:20:22.992Z,14.47
2019-01-12T13:22:51.439Z,13.20
2019-01-12T13:25:20.120Z,10.40
2019-01-12T13:27:48.708Z,12.77
2019-01-12T13:30:19.760Z,12.13
2019-01-12T13:32:48.241Z,11.60
2019-01-12T13:35:16.669Z,13.03
2019-01-12T13:37:45.344Z,14.53
2019-01-12T13:40:17.199Z,12.03
2019-01-12T13:42:45.707Z,12.23
2019-01-12T13:45:16.611Z,14.43
2019-01-12T13:47:45.193Z,10.20
2019-01-12T13:50:16.189Z,12.43
2019-01-12T13:52:44.704Z,13.67
2019-01-12T13:55:14.895Z,9.67
2019-01-12T13:57:47.742Z,10.90
2019-01-12T14:00:17.165Z,10.93
2019-01-12T14:02:46.035Z,8.57
2019-01-12T14:05:14.563Z,11.17
2019-01-12T14:07:43.009Z,12.57
2019-01-12T14:10:17.806Z,9.87
2019-01-12T14:12:46.979Z,9.33
2019-01-12T14:15:19.851Z,9.60
2019-01-12T14:17:48.696Z,8.07
2019-01-12T14:20:20.365Z,10.53
2019-01-12T14:22:48.873Z,8.93
2019-01-12T14:25:17.303Z,8.07
2019-01-12T14:27:45.934Z,6.17
2019-01-12T14:30:17.386Z,9.67
2019-01-12T14:32:45.840Z,8.73
2019-01-12T14:35:16.319Z,6.50
2019-01-12T14:37:44.918Z,8.67
2019-01-12T14:40:16.268Z,8.23
2019-01-12T14:42:45.227Z,8.07
2019-01-12T14:45:16.672Z,9.37
2019-01-12T14:47:45.131Z,8.87
2019-01-12T14:50:13.718Z,7.43
2019-01-12T14:52:42.371Z,7.73
2019-01-12T14:55:14.045Z,9.67
2019-01-12T14:57:42.497Z,6.30
2019-01-12T15:00:14.194Z,8.70
2019-01-12T15:02:42.775Z,10.67
2019-01-12T15:05:13.939Z,10.97
2019-01-12T15:07:42.888Z,15.30
2019-01-12T15:10:14.117Z,10.97
2019-01-12T15:12:42.550Z,8.50
2019-01-12T15:15:13.453Z,10.70
2019-01-12T15:17:41.953Z,16.13
2019-01-12T15:20:13.519Z,10.47
2019-01-12T15:22:43.246Z,9.20
2019-01-12T15:25:12.805Z,10.07
2019-01-12T15:27:41.548Z,9.17
2019-01-12T15:30:15.944Z,12.53
2019-01-12T15:32:44.384Z,10.47
2019-01-12T15:35:13.150Z,12.93
2019-01-12T15:37:41.653Z,11.10
2019-01-12T15:40:13.140Z,12.03
2019-01-12T15:42:41.652Z,11.43
2019-01-12T15:45:13.330Z,13.37
2019-01-12T15:47:41.888Z,12.20
2019-01-12T15:50:13.529Z,13.60
2019-01-12T15:52:41.981Z,10.17
2019-01-12T15:55:10.756Z,14.27
2019-01-12T15:57:39.219Z,13.40
2019-01-12T16:06:50.099Z,14.07
2019-01-12T16:09:21.404Z,11.60
2019-01-12T16:11:50.121Z,12.43
2019-01-12T16:14:19.563Z,11.33
2019-01-12T16:16:49.952Z,14.53
2019-01-12T16:19:18.474Z,11.73
2019-01-12T16:21:46.912Z,11.47
2019-01-12T16:24:15.370Z,15.27
2019-01-12T16:26:43.816Z,14.63
2019-01-12T16:29:12.269Z,14.97
2019-01-12T16:31:40.712Z,15.83
2019-01-12T16:34:09.174Z,12.80
2019-01-12T16:36:37.708Z,14.47
2019-01-12T16:39:08.093Z,16.83
2019-01-12T16:41:36.609Z,16.17
2019-01-12T16:44:05.681Z,16.40
2019-01-12T16:46:34.199Z,20.23
2019-01-12T16:49:02.670Z,15.90
2019-01-12T16:51:31.320Z,21.83
2019-01-12T16:53:59.790Z,15.97
2019-01-12T16:56:28.228Z,10.93
2019-01-12T16:58:56.657Z,8.07
2019-01-12T17:01:25.135Z,8.97
2019-01-12T17:03:53.555Z,8.30
2019-01-12T17:06:22.024Z,9.67
2019-01-12T17:08:50.797Z,4.73
2019-01-12T17:11:19.317Z,5.20
2019-01-12T17:13:47.781Z,4.00
2019-01-12T17:16:16.241Z,6.00
2019-01-12T17:18:44.742Z,5.33
2019-01-12T17:21:13.265Z,5.10
2019-01-12T17:23:41.687Z,5.83
2019-01-12T17:26:10.216Z,5.07
2019-01-12T17:28:38.733Z,3.97
2019-01-12T17:31:07.232Z,3.60
2019-01-12T17:33:35.696Z,5.03
2019-01-12T17:36:04.504Z,8.40
2019-01-12T17:38:32.969Z,6.13
2019-01-12T17:41:01.472Z,6.67
2019-01-12T17:43:29.988Z,6.87
2019-01-12T17:45:58.436Z,5.53
2019-01-12T17:48:26.891Z,8.67
2019-01-12T17:50:55.771Z,9.20
2019-01-12T17:53:24.258Z,9.20
2019-01-12T17:55:52.687Z,12.30
2019-01-12T17:58:21.157Z,13.47
2019-01-12T18:00:53.117Z,15.47
2019-01-12T18:03:21.643Z,20.20
2019-01-12T18:05:50.316Z,22.37
2019-01-12T18:08:19.123Z,23.73
2019-01-12T18:10:47.592Z,24.10
2019-01-12T18:13:16.196Z,28.10
2019-01-12T18:15:44.649Z,26.17
2019-01-12T18:18:13.235Z,27.23
2019-01-12T18:20:41.843Z,26.20
2019-01-12T18:23:10.349Z,24.60
2019-01-12T18:25:38.912Z,26.87
2019-01-12T18:28:07.420Z,26.50
2019-01-12T18:30:36.632Z,26.90
2019-01-12T18:33:05.232Z,29.97
2019-01-12T18:35:33.696Z,30.07
2019-01-12T18:38:02.197Z,31.03
2019-01-12T18:40:30.727Z,25.57
2019-01-12T18:42:59.268Z,24.53
2019-01-12T18:45:27.732Z,29.80
2019-01-12T18:47:56.235Z,25.07
2019-01-12T18:50:26.642Z,21.77
2019-01-12T18:52:55.232Z,22.83
2019-01-12T18:55:24.098Z,25.37
2019-01-12T18:57:52.542Z,24.60
2019-01-12T19:00:23.514Z,26.33
2019-01-12T19:02:52.123Z,21.93
2019-01-12T19:05:20.815Z,23.70
2019-01-12T19:07:49.708Z,20.73
2019-01-12T19:10:18.409Z,22.80
2019-01-12T19:12:46.859Z,20.80
2019-01-12T19:15:20.667Z,21.63
2019-01-12T19:17:49.123Z,20.30
2019-01-12T19:20:17.560Z,18.37
2019-01-12T19:22:46.156Z,22.87
2019-01-12T19:25:15.229Z,20.07
2019-01-12T19:27:43.752Z,19.00
2019-01-12T19:30:15.126Z,20.00
2019-01-12T19:32:43.753Z,25.17
2019-01-12T19:35:12.369Z,21.40
2019-01-12T19:37:40.824Z,24.20
2019-01-12T19:40:11.983Z,24.20
2019-01-12T19:42:40.441Z,16.37
2019-01-12T19:45:11.312Z,26.47
2019-01-12T19:47:39.941Z,20.57
2019-01-12T19:50:11.585Z,21.53
2019-01-12T19:52:40.040Z,23.50
2019-01-12T19:55:08.725Z,21.60
2019-01-12T19:57:37.257Z,28.43
2019-01-12T20:00:08.857Z,18.90
2019-01-12T20:02:37.411Z,25.77
2019-01-12T20:05:07.233Z,25.10
2019-01-12T20:07:35.841Z,25.87
2019-01-12T20:10:07.530Z,25.13
2019-01-12T20:12:36.075Z,20.67
2019-01-12T20:15:07.315Z,20.97
2019-01-12T20:17:35.764Z,24.00
2019-01-12T20:20:07.229Z,28.63
2019-01-12T20:22:35.682Z,29.60
2019-01-12T20:25:06.553Z,27.10
2019-01-12T20:27:34.990Z,25.57
2019-01-12T20:30:05.285Z,29.53
2019-01-12T20:32:48.675Z,30.10
2019-01-12T20:35:20.385Z,31.67
2019-01-12T20:38:00.952Z,28.73
2019-01-12T20:40:32.487Z,29.90
2019-01-12T20:43:09.900Z,28.57
2019-01-12T20:45:59.535Z,28.40
2019-01-12T20:48:34.008Z,27.33
2019-01-12T20:51:08.289Z,33.33
2019-01-12T20:53:51.131Z,30.87
2019-01-12T20:56:39.252Z,33.67
2019-01-12T20:59:16.084Z,28.60
2019-01-12T21:01:56.290Z,34.73
2019-01-12T21:04:27.901Z,31.57
2019-01-12T21:07:17.337Z,30.40
2019-01-12T21:09:54.327Z,30.37
2019-01-12T21:12:32.053Z,29.17
2019-01-12T21:15:02.832Z,26.50
2019-01-12T21:17:31.366Z,30.90
2019-01-12T21:19:59.806Z,28.57
2019-01-12T21:22:28.259Z,29.73
2019-01-12T21:24:56.694Z,25.23
2019-01-12T21:27:25.227Z,29.13
2019-01-12T21:29:53.752Z,27.57
2019-01-12T21:32:22.287Z,29.57
2019-01-12T21:34:50.736Z,27.43
2019-01-12T21:37:19.191Z,33.03
2019-01-12T21:39:47.645Z,31.03
2019-01-12T21:42:16.112Z,26.23
2019-01-12T21:44:44.567Z,28.10
2019-01-12T21:47:13.002Z,24.43
2019-01-12T21:49:41.469Z,28.67
2019-01-12T21:52:09.977Z,25.43
2019-01-12T21:54:38.433Z,27.40
2019-01-12T21:57:06.943Z,24.07
2019-01-12T21:59:42.242Z,30.37
2019-01-12T22:02:05.797Z,24.73
2019-01-12T22:04:34.345Z,29.53
2019-01-12T22:07:02.802Z,25.00
2019-01-12T22:09:31.277Z,27.97
2019-01-12T22:11:59.821Z,28.20
2019-01-12T22:14:28.348Z,29.00
2019-01-12T22:16:56.872Z,25.10
2019-01-12T22:19:25.342Z,30.27
2019-01-12T22:21:53.912Z,26.37
2019-01-12T22:24:22.474Z,28.00
2019-01-12T22:26:50.929Z,26.83
2019-01-12T22:29:19.536Z,31.70
2019-01-12T22:31:47.996Z,25.93
2019-01-12T22:34:16.537Z,30.80
2019-01-12T22:36:45.051Z,29.27
2019-01-12T22:39:13.616Z,32.77
2019-01-12T22:41:42.112Z,29.00
2019-01-12T22:44:10.574Z,30.43
2019-01-12T22:46:39.008Z,33.93
2019-01-12T22:49:07.532Z,32.80
2019-01-12T22:51:36.057Z,34.67
2019-01-12T22:54:05.165Z,30.60
2019-01-12T22:56:33.703Z,31.20
2019-01-12T22:59:02.237Z,29.80
2019-01-12T23:01:37.877Z,28.00
2019-01-12T23:04:06.608Z,32.27
2019-01-12T23:06:35.074Z,30.83
2019-01-12T23:09:05.092Z,30.53
2019-01-12T23:11:33.635Z,34.40
2019-01-12T23:14:02.221Z,30.73
2019-01-12T23:16:30.675Z,28.83
2019-01-12T23:18:59.108Z,33.13
2019-01-12T23:21:27.641Z,32.37
2019-01-12T23:23:56.175Z,29.50
2019-01-12T23:26:24.716Z,32.70
2019-01-12T23:28:53.165Z,32.97
2019-01-12T23:31:21.620Z,35.73
2019-01-12T23:33:50.132Z,32.90
2019-01-12T23:36:18.609Z,31.97
2019-01-12T23:38:47.048Z,37.93
2019-01-12T23:41:15.496Z,36.87
2019-01-12T23:43:43.965Z,29.43
2019-01-12T23:46:12.395Z,31.10
2019-01-12T23:48:40.872Z,34.07
2019-01-12T23:51:09.381Z,41.80
2019-01-12T23:53:37.860Z,36.97
2019-01-12T23:56:06.452Z,29.70
2019-01-12T23:58:34.919Z,31.53
